sensor_id;sensor_type;location;lat;lon;timestamp;P1;durP1;ratioP1;P2;durP2;ratioP2
75454;SDS011;64035;48.358;2.122;2022-10-31T00:00:16;11.27;;;4.38;;
75454;SDS011;64035;48.358;2.122;2022-10-31T00:01:21;12.00;;;4.25;;
75454;SDS011;64035;48.358;2.122;2022-10-31T00:02:26;11.55;;;4.50;;
75454;SDS011;64035;48.358;2.122;2022-10-31T00:03:26;10.85;;;4.50;;
75454;SDS011;64035;48.358;2.122;2022-10-31T00:04:30;11.13;;;4.10;;
75454;SDS011;64035;48.358;2.122;2022-10-31T00:05:30;9.32;;;4.20;;
75454;SDS011;64035;48.358;2.122;2022-10-31T00:06:31;9.52;;;3.63;;
75454;SDS011;64035;48.358;2.122;2022-10-31T00:07:32;11.50;;;4.93;;
75454;SDS011;64035;48.358;2.122;2022-10-31T00:08:32;9.90;;;4.10;;
75454;SDS011;64035;48.358;2.122;2022-10-31T00:09:32;12.93;;;4.43;;
75454;SDS011;64035;48.358;2.122;2022-10-31T00:10:33;12.30;;;4.63;;
75454;SDS011;64035;48.358;2.122;2022-10-31T00:11:33;11.40;;;4.40;;
75454;SDS011;64035;48.358;2.122;2022-10-31T00:12:33;9.18;;;4.38;;
75454;SDS011;64035;48.358;2.122;2022-10-31T00:13:34;9.90;;;4.38;;
75454;SDS011;64035;48.358;2.122;2022-10-31T00:14:34;10.10;;;4.38;;
75454;SDS011;64035;48.358;2.122;2022-10-31T00:15:35;10.30;;;4.43;;
75454;SDS011;64035;48.358;2.122;2022-10-31T00:16:39;10.95;;;4.38;;
75454;SDS011;64035;48.358;2.122;2022-10-31T00:17:41;10.88;;;4.38;;
75454;SDS011;64035;48.358;2.122;2022-10-31T00:18:47;10.60;;;4.10;;
75454;SDS011;64035;48.358;2.122;2022-10-31T00:19:49;10.63;;;4.80;;
75454;SDS011;64035;48.358;2.122;2022-10-31T00:20:57;10.70;;;4.43;;
75454;SDS011;64035;48.358;2.122;2022-10-31T00:21:58;11.55;;;3.97;;
75454;SDS011;64035;48.358;2.122;2022-10-31T00:22:59;9.95;;;4.07;;
75454;SDS011;64035;48.358;2.122;2022-10-31T00:24:00;9.60;;;4.35;;
75454;SDS011;64035;48.358;2.122;2022-10-31T00:25:01;10.80;;;4.30;;
75454;SDS011;64035;48.358;2.122;2022-10-31T00:26:02;9.70;;;4.20;;
75454;SDS011;64035;48.358;2.122;2022-10-31T00:27:03;9.70;;;4.07;;
75454;SDS011;64035;48.358;2.122;2022-10-31T00:28:04;10.05;;;4.07;;
75454;SDS011;64035;48.358;2.122;2022-10-31T00:29:06;9.35;;;4.00;;
75454;SDS011;64035;48.358;2.122;2022-10-31T00:30:06;10.80;;;4.70;;
75454;SDS011;64035;48.358;2.122;2022-10-31T00:31:07;8.00;;;3.95;;
75454;SDS011;64035;48.358;2.122;2022-10-31T00:32:12;10.57;;;4.03;;
75454;SDS011;64035;48.358;2.122;2022-10-31T00:33:12;9.57;;;4.00;;
75454;SDS011;64035;48.358;2.122;2022-10-31T00:34:14;10.23;;;4.40;;
75454;SDS011;64035;48.358;2.122;2022-10-31T00:35:14;10.65;;;4.40;;
75454;SDS011;64035;48.358;2.122;2022-10-31T00:36:15;10.15;;;3.90;;
75454;SDS011;64035;48.358;2.122;2022-10-31T00:37:17;10.00;;;3.92;;
75454;SDS011;64035;48.358;2.122;2022-10-31T00:38:18;10.82;;;4.28;;
75454;SDS011;64035;48.358;2.122;2022-10-31T00:39:18;9.65;;;4.22;;
75454;SDS011;64035;48.358;2.122;2022-10-31T00:40:18;8.75;;;4.18;;
75454;SDS011;64035;48.358;2.122;2022-10-31T00:41:19;9.13;;;3.95;;
75454;SDS011;64035;48.358;2.122;2022-10-31T00:42:19;8.23;;;3.45;;
75454;SDS011;64035;48.358;2.122;2022-10-31T00:43:20;10.93;;;4.15;;
75454;SDS011;64035;48.358;2.122;2022-10-31T00:44:20;12.77;;;4.30;;
75454;SDS011;64035;48.358;2.122;2022-10-31T00:45:20;8.43;;;3.47;;
75454;SDS011;64035;48.358;2.122;2022-10-31T00:46:21;10.77;;;4.07;;
75454;SDS011;64035;48.358;2.122;2022-10-31T00:47:21;10.00;;;3.80;;
75454;SDS011;64035;48.358;2.122;2022-10-31T00:48:21;9.35;;;3.95;;
75454;SDS011;64035;48.358;2.122;2022-10-31T00:49:22;10.20;;;3.70;;
75454;SDS011;64035;48.358;2.122;2022-10-31T00:50:22;9.00;;;3.58;;
75454;SDS011;64035;48.358;2.122;2022-10-31T00:51:25;8.65;;;3.65;;
75454;SDS011;64035;48.358;2.122;2022-10-31T00:52:26;11.73;;;3.50;;
75454;SDS011;64035;48.358;2.122;2022-10-31T00:53:32;10.80;;;3.65;;
75454;SDS011;64035;48.358;2.122;2022-10-31T00:54:35;8.30;;;3.70;;
75454;SDS011;64035;48.358;2.122;2022-10-31T00:55:36;8.70;;;3.78;;
75454;SDS011;64035;48.358;2.122;2022-10-31T00:56:38;8.82;;;4.13;;
75454;SDS011;64035;48.358;2.122;2022-10-31T00:57:39;9.48;;;3.70;;
75454;SDS011;64035;48.358;2.122;2022-10-31T00:58:39;7.93;;;3.33;;
75454;SDS011;64035;48.358;2.122;2022-10-31T00:59:39;10.98;;;4.28;;
75454;SDS011;64035;48.358;2.122;2022-10-31T01:00:40;9.75;;;3.88;;
75454;SDS011;64035;48.358;2.122;2022-10-31T01:01:40;11.18;;;3.60;;
75454;SDS011;64035;48.358;2.122;2022-10-31T01:02:40;10.60;;;3.53;;
75454;SDS011;64035;48.358;2.122;2022-10-31T01:03:41;10.50;;;3.60;;
75454;SDS011;64035;48.358;2.122;2022-10-31T01:04:41;9.38;;;3.83;;
75454;SDS011;64035;48.358;2.122;2022-10-31T01:05:42;9.60;;;3.65;;
75454;SDS011;64035;48.358;2.122;2022-10-31T01:06:42;11.15;;;4.25;;
75454;SDS011;64035;48.358;2.122;2022-10-31T01:07:42;9.88;;;3.15;;
75454;SDS011;64035;48.358;2.122;2022-10-31T01:08:43;10.35;;;3.65;;
75454;SDS011;64035;48.358;2.122;2022-10-31T01:09:43;9.30;;;3.65;;
75454;SDS011;64035;48.358;2.122;2022-10-31T01:10:44;11.70;;;3.83;;
75454;SDS011;64035;48.358;2.122;2022-10-31T01:11:44;7.85;;;3.40;;
75454;SDS011;64035;48.358;2.122;2022-10-31T01:12:45;9.90;;;3.80;;
75454;SDS011;64035;48.358;2.122;2022-10-31T01:13:49;9.45;;;3.13;;
75454;SDS011;64035;48.358;2.122;2022-10-31T01:14:51;12.27;;;3.63;;
75454;SDS011;64035;48.358;2.122;2022-10-31T01:15:54;8.63;;;3.28;;
75454;SDS011;64035;48.358;2.122;2022-10-31T01:16:56;8.23;;;3.10;;
75454;SDS011;64035;48.358;2.122;2022-10-31T01:17:56;9.25;;;3.53;;
75454;SDS011;64035;48.358;2.122;2022-10-31T01:18:56;9.65;;;4.07;;
75454;SDS011;64035;48.358;2.122;2022-10-31T01:19:57;10.10;;;3.55;;
75454;SDS011;64035;48.358;2.122;2022-10-31T01:21:07;8.88;;;3.33;;
75454;SDS011;64035;48.358;2.122;2022-10-31T01:22:12;8.93;;;3.65;;
75454;SDS011;64035;48.358;2.122;2022-10-31T01:23:13;7.97;;;3.28;;
75454;SDS011;64035;48.358;2.122;2022-10-31T01:24:13;9.57;;;3.35;;
75454;SDS011;64035;48.358;2.122;2022-10-31T01:25:13;9.05;;;3.40;;
75454;SDS011;64035;48.358;2.122;2022-10-31T01:26:15;9.02;;;3.13;;
75454;SDS011;64035;48.358;2.122;2022-10-31T01:27:17;9.10;;;3.42;;
75454;SDS011;64035;48.358;2.122;2022-10-31T01:28:17;9.02;;;3.20;;
75454;SDS011;64035;48.358;2.122;2022-10-31T01:29:18;9.35;;;3.58;;
75454;SDS011;64035;48.358;2.122;2022-10-31T01:30:21;7.18;;;2.90;;
75454;SDS011;64035;48.358;2.122;2022-10-31T01:31:25;9.63;;;3.25;;
75454;SDS011;64035;48.358;2.122;2022-10-31T01:32:27;8.60;;;3.05;;
75454;SDS011;64035;48.358;2.122;2022-10-31T01:33:31;11.25;;;3.58;;
75454;SDS011;64035;48.358;2.122;2022-10-31T01:34:32;9.50;;;3.20;;
75454;SDS011;64035;48.358;2.122;2022-10-31T01:35:32;8.40;;;2.80;;
75454;SDS011;64035;48.358;2.122;2022-10-31T01:36:34;7.60;;;2.83;;
75454;SDS011;64035;48.358;2.122;2022-10-31T01:37:36;8.27;;;3.33;;
75454;SDS011;64035;48.358;2.122;2022-10-31T01:38:37;8.80;;;3.15;;
75454;SDS011;64035;48.358;2.122;2022-10-31T01:39:37;8.70;;;3.60;;
75454;SDS011;64035;48.358;2.122;2022-10-31T01:40:40;11.57;;;3.40;;
75454;SDS011;64035;48.358;2.122;2022-10-31T01:41:42;8.25;;;3.13;;
75454;SDS011;64035;48.358;2.122;2022-10-31T01:42:53;10.73;;;3.08;;
75454;SDS011;64035;48.358;2.122;2022-10-31T01:43:54;10.90;;;3.42;;
75454;SDS011;64035;48.358;2.122;2022-10-31T01:44:58;8.65;;;3.08;;
75454;SDS011;64035;48.358;2.122;2022-10-31T01:47:03;8.60;;;2.80;;
75454;SDS011;64035;48.358;2.122;2022-10-31T01:48:14;7.18;;;2.83;;
75454;SDS011;64035;48.358;2.122;2022-10-31T01:49:18;10.48;;;3.58;;
75454;SDS011;64035;48.358;2.122;2022-10-31T01:50:28;7.10;;;2.97;;
75454;SDS011;64035;48.358;2.122;2022-10-31T01:51:36;8.80;;;3.08;;
75454;SDS011;64035;48.358;2.122;2022-10-31T01:52:47;8.27;;;3.10;;
75454;SDS011;64035;48.358;2.122;2022-10-31T01:53:49;8.60;;;3.28;;
75454;SDS011;64035;48.358;2.122;2022-10-31T01:55:02;8.07;;;3.10;;
75454;SDS011;64035;48.358;2.122;2022-10-31T01:56:07;10.45;;;2.92;;
75454;SDS011;64035;48.358;2.122;2022-10-31T01:57:09;8.20;;;2.80;;
75454;SDS011;64035;48.358;2.122;2022-10-31T01:58:19;9.32;;;3.30;;
75454;SDS011;64035;48.358;2.122;2022-10-31T02:00:27;7.80;;;2.85;;
75454;SDS011;64035;48.358;2.122;2022-10-31T02:01:33;7.80;;;3.10;;
75454;SDS011;64035;48.358;2.122;2022-10-31T02:02:37;7.22;;;2.50;;
75454;SDS011;64035;48.358;2.122;2022-10-31T02:03:37;9.68;;;2.97;;
75454;SDS011;64035;48.358;2.122;2022-10-31T02:04:38;9.52;;;3.00;;
75454;SDS011;64035;48.358;2.122;2022-10-31T02:05:39;9.05;;;3.05;;
75454;SDS011;64035;48.358;2.122;2022-10-31T02:06:49;9.63;;;2.95;;
75454;SDS011;64035;48.358;2.122;2022-10-31T02:07:59;8.40;;;3.00;;
75454;SDS011;64035;48.358;2.122;2022-10-31T02:09:05;7.55;;;2.75;;
75454;SDS011;64035;48.358;2.122;2022-10-31T02:10:06;8.30;;;3.30;;
75454;SDS011;64035;48.358;2.122;2022-10-31T02:11:07;7.70;;;2.72;;
75454;SDS011;64035;48.358;2.122;2022-10-31T02:12:09;7.28;;;2.75;;
75454;SDS011;64035;48.358;2.122;2022-10-31T02:13:10;6.75;;;2.63;;
75454;SDS011;64035;48.358;2.122;2022-10-31T02:14:12;8.98;;;2.78;;
75454;SDS011;64035;48.358;2.122;2022-10-31T02:15:13;6.70;;;2.72;;
75454;SDS011;64035;48.358;2.122;2022-10-31T02:16:16;7.72;;;2.80;;
75454;SDS011;64035;48.358;2.122;2022-10-31T02:17:17;9.05;;;2.88;;
75454;SDS011;64035;48.358;2.122;2022-10-31T02:18:17;7.63;;;3.05;;
75454;SDS011;64035;48.358;2.122;2022-10-31T02:19:26;9.40;;;3.13;;
75454;SDS011;64035;48.358;2.122;2022-10-31T02:22:36;7.57;;;2.88;;
75454;SDS011;64035;48.358;2.122;2022-10-31T02:30:39;7.95;;;3.10;;
75454;SDS011;64035;48.358;2.122;2022-10-31T02:36:12;7.18;;;2.50;;
75454;SDS011;64035;48.358;2.122;2022-10-31T02:40:31;7.95;;;3.05;;
75454;SDS011;64035;48.358;2.122;2022-10-31T02:41:46;6.70;;;2.40;;
75454;SDS011;64035;48.358;2.122;2022-10-31T02:42:50;7.40;;;3.00;;
75454;SDS011;64035;48.358;2.122;2022-10-31T02:47:36;7.57;;;2.88;;
75454;SDS011;64035;48.358;2.122;2022-10-31T02:48:38;7.65;;;2.50;;
75454;SDS011;64035;48.358;2.122;2022-10-31T02:49:45;6.75;;;2.63;;
75454;SDS011;64035;48.358;2.122;2022-10-31T02:50:57;7.53;;;2.83;;
75454;SDS011;64035;48.358;2.122;2022-10-31T02:52:00;7.70;;;2.35;;
75454;SDS011;64035;48.358;2.122;2022-10-31T02:53:03;8.15;;;2.92;;
75454;SDS011;64035;48.358;2.122;2022-10-31T02:54:04;6.53;;;2.38;;
75454;SDS011;64035;48.358;2.122;2022-10-31T02:56:16;6.70;;;2.30;;
75454;SDS011;64035;48.358;2.122;2022-10-31T02:57:25;7.43;;;2.50;;
75454;SDS011;64035;48.358;2.122;2022-10-31T02:58:31;7.80;;;2.50;;
75454;SDS011;64035;48.358;2.122;2022-10-31T02:59:44;6.57;;;2.50;;
75454;SDS011;64035;48.358;2.122;2022-10-31T03:01:01;7.20;;;2.60;;
75454;SDS011;64035;48.358;2.122;2022-10-31T03:02:32;7.18;;;2.30;;
75454;SDS011;64035;48.358;2.122;2022-10-31T03:11:50;6.50;;;2.25;;
75454;SDS011;64035;48.358;2.122;2022-10-31T03:14:17;5.95;;;2.30;;
75454;SDS011;64035;48.358;2.122;2022-10-31T03:15:28;5.72;;;2.03;;
75454;SDS011;64035;48.358;2.122;2022-10-31T03:19:03;6.07;;;2.25;;
75454;SDS011;64035;48.358;2.122;2022-10-31T03:20:08;7.68;;;2.50;;
75454;SDS011;64035;48.358;2.122;2022-10-31T03:21:13;6.07;;;2.20;;
75454;SDS011;64035;48.358;2.122;2022-10-31T03:23:26;7.50;;;2.35;;
75454;SDS011;64035;48.358;2.122;2022-10-31T03:24:30;9.50;;;2.78;;
75454;SDS011;64035;48.358;2.122;2022-10-31T03:25:34;5.95;;;1.98;;
75454;SDS011;64035;48.358;2.122;2022-10-31T03:26:38;6.53;;;2.05;;
75454;SDS011;64035;48.358;2.122;2022-10-31T03:27:46;8.30;;;2.30;;
75454;SDS011;64035;48.358;2.122;2022-10-31T03:29:07;6.63;;;2.00;;
75454;SDS011;64035;48.358;2.122;2022-10-31T03:30:10;6.10;;;2.03;;
75454;SDS011;64035;48.358;2.122;2022-10-31T03:31:12;6.53;;;2.35;;
75454;SDS011;64035;48.358;2.122;2022-10-31T03:32:25;5.55;;;2.30;;
75454;SDS011;64035;48.358;2.122;2022-10-31T03:33:32;6.30;;;1.98;;
75454;SDS011;64035;48.358;2.122;2022-10-31T03:34:36;6.45;;;2.08;;
75454;SDS011;64035;48.358;2.122;2022-10-31T03:35:39;7.10;;;2.15;;
75454;SDS011;64035;48.358;2.122;2022-10-31T03:37:47;5.07;;;1.98;;
75454;SDS011;64035;48.358;2.122;2022-10-31T03:38:49;5.05;;;1.98;;
75454;SDS011;64035;48.358;2.122;2022-10-31T03:39:51;5.57;;;2.10;;
75454;SDS011;64035;48.358;2.122;2022-10-31T03:40:54;6.13;;;2.25;;
75454;SDS011;64035;48.358;2.122;2022-10-31T03:42:11;5.68;;;1.98;;
75454;SDS011;64035;48.358;2.122;2022-10-31T03:43:16;6.78;;;2.22;;
75454;SDS011;64035;48.358;2.122;2022-10-31T03:44:21;6.07;;;1.95;;
75454;SDS011;64035;48.358;2.122;2022-10-31T03:45:27;6.45;;;2.20;;
75454;SDS011;64035;48.358;2.122;2022-10-31T03:47:30;5.70;;;1.70;;
75454;SDS011;64035;48.358;2.122;2022-10-31T03:48:31;5.88;;;1.83;;
75454;SDS011;64035;48.358;2.122;2022-10-31T03:49:32;7.60;;;2.08;;
75454;SDS011;64035;48.358;2.122;2022-10-31T03:50:38;6.78;;;2.17;;
75454;SDS011;64035;48.358;2.122;2022-10-31T03:51:48;6.75;;;2.13;;
75454;SDS011;64035;48.358;2.122;2022-10-31T03:53:17;5.38;;;1.98;;
75454;SDS011;64035;48.358;2.122;2022-10-31T03:55:51;5.75;;;2.17;;
75454;SDS011;64035;48.358;2.122;2022-10-31T03:57:08;4.75;;;1.95;;
75454;SDS011;64035;48.358;2.122;2022-10-31T03:58:47;7.18;;;2.08;;
75454;SDS011;64035;48.358;2.122;2022-10-31T03:59:55;4.88;;;1.83;;
75454;SDS011;64035;48.358;2.122;2022-10-31T04:01:03;7.25;;;2.10;;
75454;SDS011;64035;48.358;2.122;2022-10-31T04:02:07;7.15;;;2.08;;
75454;SDS011;64035;48.358;2.122;2022-10-31T04:03:17;6.35;;;1.90;;
75454;SDS011;64035;48.358;2.122;2022-10-31T04:04:21;7.40;;;2.05;;
75454;SDS011;64035;48.358;2.122;2022-10-31T04:05:22;5.32;;;1.83;;
75454;SDS011;64035;48.358;2.122;2022-10-31T04:06:22;7.10;;;2.17;;
75454;SDS011;64035;48.358;2.122;2022-10-31T04:07:26;5.88;;;2.20;;
75454;SDS011;64035;48.358;2.122;2022-10-31T04:08:30;6.32;;;1.88;;
75454;SDS011;64035;48.358;2.122;2022-10-31T04:09:35;6.15;;;2.40;;
75454;SDS011;64035;48.358;2.122;2022-10-31T04:10:37;5.07;;;1.85;;
75454;SDS011;64035;48.358;2.122;2022-10-31T04:11:42;7.22;;;2.00;;
75454;SDS011;64035;48.358;2.122;2022-10-31T04:12:50;4.57;;;1.80;;
75454;SDS011;64035;48.358;2.122;2022-10-31T04:13:54;4.60;;;1.73;;
75454;SDS011;64035;48.358;2.122;2022-10-31T04:14:56;7.22;;;2.15;;
75454;SDS011;64035;48.358;2.122;2022-10-31T04:15:58;6.22;;;2.03;;
75454;SDS011;64035;48.358;2.122;2022-10-31T04:16:59;7.47;;;2.10;;
75454;SDS011;64035;48.358;2.122;2022-10-31T04:18:03;5.28;;;2.00;;
75454;SDS011;64035;48.358;2.122;2022-10-31T04:19:05;6.15;;;1.88;;
75454;SDS011;64035;48.358;2.122;2022-10-31T04:20:08;6.90;;;1.85;;
75454;SDS011;64035;48.358;2.122;2022-10-31T04:21:09;6.35;;;1.95;;
75454;SDS011;64035;48.358;2.122;2022-10-31T04:22:12;7.32;;;2.00;;
75454;SDS011;64035;48.358;2.122;2022-10-31T04:23:19;6.65;;;2.00;;
75454;SDS011;64035;48.358;2.122;2022-10-31T04:24:24;4.30;;;1.63;;
75454;SDS011;64035;48.358;2.122;2022-10-31T04:25:24;5.47;;;2.17;;
75454;SDS011;64035;48.358;2.122;2022-10-31T04:26:27;5.78;;;1.83;;
75454;SDS011;64035;48.358;2.122;2022-10-31T04:27:27;6.20;;;1.88;;
75454;SDS011;64035;48.358;2.122;2022-10-31T04:28:28;5.90;;;1.80;;
75454;SDS011;64035;48.358;2.122;2022-10-31T04:29:28;7.45;;;2.15;;
75454;SDS011;64035;48.358;2.122;2022-10-31T04:30:29;7.72;;;2.00;;
75454;SDS011;64035;48.358;2.122;2022-10-31T04:31:29;6.15;;;1.98;;
75454;SDS011;64035;48.358;2.122;2022-10-31T04:32:29;5.65;;;2.05;;
75454;SDS011;64035;48.358;2.122;2022-10-31T04:33:30;4.70;;;1.70;;
75454;SDS011;64035;48.358;2.122;2022-10-31T04:34:33;5.82;;;1.70;;
75454;SDS011;64035;48.358;2.122;2022-10-31T04:35:33;6.20;;;2.03;;
75454;SDS011;64035;48.358;2.122;2022-10-31T04:36:34;4.45;;;1.50;;
75454;SDS011;64035;48.358;2.122;2022-10-31T04:37:34;6.65;;;1.80;;
75454;SDS011;64035;48.358;2.122;2022-10-31T04:38:34;5.30;;;1.95;;
75454;SDS011;64035;48.358;2.122;2022-10-31T04:39:35;4.55;;;1.73;;
75454;SDS011;64035;48.358;2.122;2022-10-31T04:40:35;8.23;;;2.40;;
75454;SDS011;64035;48.358;2.122;2022-10-31T04:41:35;5.63;;;1.80;;
75454;SDS011;64035;48.358;2.122;2022-10-31T04:42:36;6.78;;;2.05;;
75454;SDS011;64035;48.358;2.122;2022-10-31T04:43:36;5.25;;;1.60;;
75454;SDS011;64035;48.358;2.122;2022-10-31T04:44:37;5.25;;;1.77;;
75454;SDS011;64035;48.358;2.122;2022-10-31T04:45:37;5.15;;;1.80;;
75454;SDS011;64035;48.358;2.122;2022-10-31T04:46:37;5.90;;;1.80;;
75454;SDS011;64035;48.358;2.122;2022-10-31T04:47:38;5.97;;;1.80;;
75454;SDS011;64035;48.358;2.122;2022-10-31T04:48:38;4.63;;;2.00;;
75454;SDS011;64035;48.358;2.122;2022-10-31T04:49:39;5.63;;;1.75;;
75454;SDS011;64035;48.358;2.122;2022-10-31T04:50:39;5.07;;;1.58;;
75454;SDS011;64035;48.358;2.122;2022-10-31T04:51:40;5.00;;;1.73;;
75454;SDS011;64035;48.358;2.122;2022-10-31T04:52:41;6.25;;;1.75;;
75454;SDS011;64035;48.358;2.122;2022-10-31T04:53:42;6.65;;;1.77;;
75454;SDS011;64035;48.358;2.122;2022-10-31T04:54:42;6.32;;;2.00;;
75454;SDS011;64035;48.358;2.122;2022-10-31T04:55:43;6.72;;;1.95;;
75454;SDS011;64035;48.358;2.122;2022-10-31T04:56:43;5.05;;;1.73;;
75454;SDS011;64035;48.358;2.122;2022-10-31T04:57:47;4.90;;;1.80;;
75454;SDS011;64035;48.358;2.122;2022-10-31T04:58:48;5.68;;;1.98;;
75454;SDS011;64035;48.358;2.122;2022-10-31T04:59:49;6.43;;;1.80;;
75454;SDS011;64035;48.358;2.122;2022-10-31T05:00:52;5.00;;;1.75;;
75454;SDS011;64035;48.358;2.122;2022-10-31T05:01:53;5.82;;;1.80;;
75454;SDS011;64035;48.358;2.122;2022-10-31T05:02:55;5.00;;;1.90;;
75454;SDS011;64035;48.358;2.122;2022-10-31T05:03:56;4.50;;;1.73;;
75454;SDS011;64035;48.358;2.122;2022-10-31T05:05:00;7.00;;;1.90;;
75454;SDS011;64035;48.358;2.122;2022-10-31T05:06:00;5.50;;;1.95;;
75454;SDS011;64035;48.358;2.122;2022-10-31T05:07:00;5.65;;;2.08;;
75454;SDS011;64035;48.358;2.122;2022-10-31T05:08:01;4.80;;;1.63;;
75454;SDS011;64035;48.358;2.122;2022-10-31T05:09:01;5.13;;;1.75;;
75454;SDS011;64035;48.358;2.122;2022-10-31T05:10:02;7.43;;;1.95;;
75454;SDS011;64035;48.358;2.122;2022-10-31T05:11:03;6.00;;;1.65;;
75454;SDS011;64035;48.358;2.122;2022-10-31T05:12:06;5.68;;;1.80;;
75454;SDS011;64035;48.358;2.122;2022-10-31T05:13:07;4.70;;;1.90;;
75454;SDS011;64035;48.358;2.122;2022-10-31T05:14:11;5.22;;;1.70;;
75454;SDS011;64035;48.358;2.122;2022-10-31T05:15:11;5.53;;;1.60;;
75454;SDS011;64035;48.358;2.122;2022-10-31T05:16:11;4.75;;;1.73;;
75454;SDS011;64035;48.358;2.122;2022-10-31T05:17:12;4.70;;;1.70;;
75454;SDS011;64035;48.358;2.122;2022-10-31T05:18:12;4.28;;;1.60;;
75454;SDS011;64035;48.358;2.122;2022-10-31T05:19:12;6.05;;;1.75;;
75454;SDS011;64035;48.358;2.122;2022-10-31T05:20:13;5.45;;;1.70;;
75454;SDS011;64035;48.358;2.122;2022-10-31T05:21:15;4.80;;;1.60;;
75454;SDS011;64035;48.358;2.122;2022-10-31T05:22:15;7.50;;;1.90;;
75454;SDS011;64035;48.358;2.122;2022-10-31T05:23:18;5.45;;;1.67;;
75454;SDS011;64035;48.358;2.122;2022-10-31T05:24:18;4.32;;;1.35;;
75454;SDS011;64035;48.358;2.122;2022-10-31T05:25:22;5.15;;;1.85;;
75454;SDS011;64035;48.358;2.122;2022-10-31T05:26:24;6.82;;;2.00;;
75454;SDS011;64035;48.358;2.122;2022-10-31T05:27:25;5.80;;;1.60;;
75454;SDS011;64035;48.358;2.122;2022-10-31T05:28:25;5.15;;;1.70;;
75454;SDS011;64035;48.358;2.122;2022-10-31T05:29:25;4.88;;;1.70;;
75454;SDS011;64035;48.358;2.122;2022-10-31T05:30:27;7.20;;;1.80;;
75454;SDS011;64035;48.358;2.122;2022-10-31T05:31:30;4.82;;;1.70;;
75454;SDS011;64035;48.358;2.122;2022-10-31T05:32:35;5.32;;;1.80;;
75454;SDS011;64035;48.358;2.122;2022-10-31T05:33:37;6.13;;;1.58;;
75454;SDS011;64035;48.358;2.122;2022-10-31T05:34:40;6.30;;;1.63;;
75454;SDS011;64035;48.358;2.122;2022-10-31T05:35:40;5.93;;;1.70;;
75454;SDS011;64035;48.358;2.122;2022-10-31T05:36:41;5.03;;;1.60;;
75454;SDS011;64035;48.358;2.122;2022-10-31T05:37:41;4.60;;;1.50;;
75454;SDS011;64035;48.358;2.122;2022-10-31T05:38:41;5.15;;;1.55;;
75454;SDS011;64035;48.358;2.122;2022-10-31T05:39:42;4.88;;;1.40;;
75454;SDS011;64035;48.358;2.122;2022-10-31T05:40:42;6.10;;;1.85;;
75454;SDS011;64035;48.358;2.122;2022-10-31T05:41:43;5.28;;;2.08;;
75454;SDS011;64035;48.358;2.122;2022-10-31T05:42:43;6.82;;;1.95;;
75454;SDS011;64035;48.358;2.122;2022-10-31T05:43:44;4.50;;;1.35;;
75454;SDS011;64035;48.358;2.122;2022-10-31T05:44:45;3.70;;;1.40;;
75454;SDS011;64035;48.358;2.122;2022-10-31T05:45:45;6.30;;;1.88;;
75454;SDS011;64035;48.358;2.122;2022-10-31T05:46:46;6.20;;;1.80;;
75454;SDS011;64035;48.358;2.122;2022-10-31T05:47:53;7.30;;;1.63;;
75454;SDS011;64035;48.358;2.122;2022-10-31T05:48:55;5.70;;;1.73;;
75454;SDS011;64035;48.358;2.122;2022-10-31T05:49:56;6.07;;;1.92;;
75454;SDS011;64035;48.358;2.122;2022-10-31T05:50:56;5.13;;;1.88;;
75454;SDS011;64035;48.358;2.122;2022-10-31T05:51:56;4.85;;;1.73;;
75454;SDS011;64035;48.358;2.122;2022-10-31T05:52:59;4.22;;;1.50;;
75454;SDS011;64035;48.358;2.122;2022-10-31T05:54:00;4.65;;;1.67;;
75454;SDS011;64035;48.358;2.122;2022-10-31T05:55:01;5.38;;;1.70;;
75454;SDS011;64035;48.358;2.122;2022-10-31T05:56:03;5.88;;;1.80;;
75454;SDS011;64035;48.358;2.122;2022-10-31T05:57:04;4.95;;;1.67;;
75454;SDS011;64035;48.358;2.122;2022-10-31T05:58:04;4.43;;;1.65;;
75454;SDS011;64035;48.358;2.122;2022-10-31T05:59:05;7.75;;;1.95;;
75454;SDS011;64035;48.358;2.122;2022-10-31T06:00:08;7.15;;;1.80;;
75454;SDS011;64035;48.358;2.122;2022-10-31T06:01:08;5.30;;;1.77;;
75454;SDS011;64035;48.358;2.122;2022-10-31T06:02:09;6.05;;;1.67;;
75454;SDS011;64035;48.358;2.122;2022-10-31T06:03:09;5.80;;;1.70;;
75454;SDS011;64035;48.358;2.122;2022-10-31T06:04:10;5.53;;;1.65;;
75454;SDS011;64035;48.358;2.122;2022-10-31T06:05:10;6.68;;;1.90;;
75454;SDS011;64035;48.358;2.122;2022-10-31T06:06:11;5.07;;;1.80;;
75454;SDS011;64035;48.358;2.122;2022-10-31T06:07:11;7.88;;;1.60;;
75454;SDS011;64035;48.358;2.122;2022-10-31T06:08:12;6.07;;;2.03;;
75454;SDS011;64035;48.358;2.122;2022-10-31T06:09:12;6.25;;;1.92;;
75454;SDS011;64035;48.358;2.122;2022-10-31T06:10:12;5.90;;;2.10;;
75454;SDS011;64035;48.358;2.122;2022-10-31T06:11:13;4.90;;;1.90;;
75454;SDS011;64035;48.358;2.122;2022-10-31T06:12:13;4.55;;;1.63;;
75454;SDS011;64035;48.358;2.122;2022-10-31T06:13:16;6.10;;;1.92;;
75454;SDS011;64035;48.358;2.122;2022-10-31T06:14:17;6.10;;;2.13;;
75454;SDS011;64035;48.358;2.122;2022-10-31T06:15:17;4.95;;;1.75;;
75454;SDS011;64035;48.358;2.122;2022-10-31T06:16:17;5.38;;;1.70;;
75454;SDS011;64035;48.358;2.122;2022-10-31T06:17:18;6.25;;;1.85;;
75454;SDS011;64035;48.358;2.122;2022-10-31T06:18:18;5.93;;;1.90;;
75454;SDS011;64035;48.358;2.122;2022-10-31T06:19:19;5.50;;;1.98;;
75454;SDS011;64035;48.358;2.122;2022-10-31T06:20:21;8.10;;;2.10;;
75454;SDS011;64035;48.358;2.122;2022-10-31T06:21:22;5.55;;;1.80;;
75454;SDS011;64035;48.358;2.122;2022-10-31T06:22:22;5.35;;;1.73;;
75454;SDS011;64035;48.358;2.122;2022-10-31T06:23:23;3.22;;;1.55;;
75454;SDS011;64035;48.358;2.122;2022-10-31T06:24:23;5.13;;;1.98;;
75454;SDS011;64035;48.358;2.122;2022-10-31T06:25:24;5.38;;;1.95;;
75454;SDS011;64035;48.358;2.122;2022-10-31T06:26:24;5.20;;;1.73;;
75454;SDS011;64035;48.358;2.122;2022-10-31T06:27:24;5.22;;;1.95;;
75454;SDS011;64035;48.358;2.122;2022-10-31T06:28:25;4.60;;;1.77;;
75454;SDS011;64035;48.358;2.122;2022-10-31T06:29:25;5.63;;;1.88;;
75454;SDS011;64035;48.358;2.122;2022-10-31T06:30:26;5.60;;;1.80;;
75454;SDS011;64035;48.358;2.122;2022-10-31T06:31:26;6.88;;;2.10;;
75454;SDS011;64035;48.358;2.122;2022-10-31T06:32:27;5.78;;;1.85;;
75454;SDS011;64035;48.358;2.122;2022-10-31T06:33:27;5.82;;;2.00;;
75454;SDS011;64035;48.358;2.122;2022-10-31T06:34:27;6.53;;;1.98;;
75454;SDS011;64035;48.358;2.122;2022-10-31T06:35:28;4.75;;;1.90;;
75454;SDS011;64035;48.358;2.122;2022-10-31T06:36:28;5.28;;;2.13;;
75454;SDS011;64035;48.358;2.122;2022-10-31T06:37:29;4.35;;;1.60;;
75454;SDS011;64035;48.358;2.122;2022-10-31T06:38:29;4.80;;;1.70;;
75454;SDS011;64035;48.358;2.122;2022-10-31T06:39:29;5.05;;;1.90;;
75454;SDS011;64035;48.358;2.122;2022-10-31T06:40:30;7.38;;;2.13;;
75454;SDS011;64035;48.358;2.122;2022-10-31T06:41:30;7.88;;;2.00;;
75454;SDS011;64035;48.358;2.122;2022-10-31T06:42:30;5.50;;;1.70;;
75454;SDS011;64035;48.358;2.122;2022-10-31T06:43:31;5.70;;;2.30;;
75454;SDS011;64035;48.358;2.122;2022-10-31T06:44:32;6.25;;;1.90;;
75454;SDS011;64035;48.358;2.122;2022-10-31T06:45:32;6.60;;;2.10;;
75454;SDS011;64035;48.358;2.122;2022-10-31T06:46:33;6.32;;;2.28;;
75454;SDS011;64035;48.358;2.122;2022-10-31T06:47:36;5.47;;;1.90;;
75454;SDS011;64035;48.358;2.122;2022-10-31T06:48:36;4.90;;;2.00;;
75454;SDS011;64035;48.358;2.122;2022-10-31T06:49:37;5.18;;;1.80;;
75454;SDS011;64035;48.358;2.122;2022-10-31T06:50:37;4.68;;;1.90;;
75454;SDS011;64035;48.358;2.122;2022-10-31T06:51:37;6.30;;;1.90;;
75454;SDS011;64035;48.358;2.122;2022-10-31T06:52:38;5.28;;;1.90;;
75454;SDS011;64035;48.358;2.122;2022-10-31T06:53:38;4.18;;;1.73;;
75454;SDS011;64035;48.358;2.122;2022-10-31T06:54:38;3.72;;;1.48;;
75454;SDS011;64035;48.358;2.122;2022-10-31T06:55:39;4.93;;;1.70;;
75454;SDS011;64035;48.358;2.122;2022-10-31T06:56:40;5.22;;;1.88;;